Latest Weather Observations for Adelaide

IDS60801

Issued at 11:31 am CST Sunday 25 September 2016 (issued every 30 minutes, with the page automatically refreshed every 10 minutes)

About weather observations | Map of weather stations | Latest weather observations for SA | Other Formats
Station Details ID: 023090 Name: KENT TOWN Lat: -34.92 Lon: 138.62 Height: 48.0 m
Data from the previous 72 hours. | See also: Recent months at Adelaide
Date/Time
CST
Temp
°C
App
Temp
°C
Dew
Point
°C
Rel
Hum
%
Delta-T
°C
Wind Press
QNH
hPa
Press
MSL
hPa
Rain since
9am
mm
Dir  Spd
km/h
Gust
km/h
Spd
kts
Gust
kts
25/11:30am 14.6 10.5 4.5 50 4.7 SW 15 26 8 14 1015.7 - 0.0
25/11:00am 14.4 11.4 5.8 56 4.1 SW 11 19 6 10 1015.9 - 0.0
25/10:30am 15.3 12.2 7.2 58 4.0 W 13 17 7 9 1016.1 - 0.0
25/10:00am 12.7 9.7 6.2 64 3.1 WSW 11 20 6 11 1016.4 - 0.0
25/09:30am 12.3 11.0 6.2 66 2.9 S 2 6 1 3 1016.3 - 0.0
25/09:00am 10.5 6.9 6.7 77 1.8 S 15 24 8 13 1016.8 1016.9 2.0
25/08:30am 10.1 7.5 7.6 84 1.2 WSW 11 17 6 9 1016.7 - 2.0
25/08:00am 10.1 9.5 7.6 84 1.2 CALM 0 0 0 0 1016.3 - 1.8
25/07:30am 9.4 8.4 7.3 87 1.0 ESE 2 7 1 4 1016.0 - 1.8
25/07:00am 9.4 7.3 5.9 79 1.6 NNE 6 9 3 5 1015.5 - 1.4
25/06:30am 8.3 6.3 6.1 86 1.0 E 6 9 3 5 1014.9 - 1.4
25/06:00am 8.4 7.5 6.0 85 1.1 CALM 0 6 0 3 1014.7 1014.8 1.4
25/05:30am 8.3 7.4 6.1 86 1.0 CALM 0 0 0 0 1014.2 - 1.4
25/05:00am 8.9 6.8 5.6 80 1.5 ESE 6 13 3 7 1013.9 - 1.4
25/04:30am 9.8 7.4 5.4 74 2.0 SW 7 15 4 8 1013.6 - 1.4
25/04:00am 9.1 8.1 5.6 79 1.6 CALM 0 0 0 0 1013.6 - 1.4
25/03:30am 8.8 7.8 5.5 80 1.5 CALM 0 0 0 0 1013.3 - 1.4
25/03:00am 8.3 7.2 5.2 81 1.4 CALM 0 0 0 0 1012.9 1012.9 1.4
25/02:30am 9.3 7.7 4.6 72 2.1 SE 2 6 1 3 1012.7 - 1.4
25/02:00am 9.8 7.7 3.9 66 2.6 S 4 7 2 4 1013.1 - 1.4
25/01:30am 9.3 6.9 4.3 71 2.2 SSE 6 9 3 5 1013.2 - 1.4
25/01:00am 10.2 7.0 3.3 62 3.0 SW 9 15 5 8 1013.2 - 1.4
25/12:30am 10.1 6.8 2.6 59 3.2 SW 9 20 5 11 1013.1 - 1.4
25/12:00am 9.8 7.1 3.9 66 2.6 SW 7 11 4 6 1013.1 1013.1 1.4
 
Date/Time
CST
Temp
°C
App
Temp
°C
Dew
Point
°C
Rel
Hum
%
Delta-T
°C
Wind Press
QNH
hPa
Press
MSL
hPa
Rain since
9am
mm
Dir  Spd
km/h
Gust
km/h
Spd
kts
Gust
kts
24/11:30pm 10.5 7.5 4.0 64 2.9 SW 9 15 5 8 1013.0 - 1.4
24/11:00pm 11.2 7.6 5.1 66 2.8 SW 13 22 7 12 1013.1 - 1.4
24/10:30pm 10.8 8.1 5.8 71 2.3 SSW 9 13 5 7 1012.9 - 1.4
24/10:00pm 10.3 8.1 6.0 75 2.0 SSW 7 11 4 6 1012.8 - 1.4
24/09:30pm 10.5 8.4 6.5 76 1.9 SSW 7 13 4 7 1012.5 - 1.4
24/09:00pm 11.1 8.2 6.4 73 2.2 SSW 11 17 6 9 1012.3 1012.4 1.4
24/08:30pm 11.5 9.0 6.7 72 2.3 SSW 9 15 5 8 1012.1 - 1.4
24/08:00pm 12.0 9.2 6.8 70 2.5 SSW 11 17 6 9 1011.4 - 1.4
24/07:30pm 12.1 8.6 7.1 71 2.4 SW 15 28 8 15 1010.9 - 1.4
24/07:00pm 11.7 9.5 9.3 85 1.2 SW 11 17 6 9 1010.3 - 1.4
24/06:30pm 12.4 9.7 9.0 80 1.7 SSW 13 22 7 12 1009.7 - 1.2
24/06:00pm 13.5 10.2 8.1 70 2.7 SW 15 26 8 14 1009.1 1009.2 1.2
24/05:30pm 13.8 9.7 7.7 66 3.0 SW 19 32 10 17 1008.7 - 1.2
24/05:00pm 14.2 10.4 9.1 71 2.6 SW 19 32 10 17 1008.1 - 1.2
24/04:30pm 14.5 10.5 9.2 70 2.7 SW 20 33 11 18 1007.7 - 1.2
24/04:00pm 15.7 12.2 8.9 64 3.5 SW 17 30 9 16 1007.2 - 1.2
24/03:30pm 15.0 11.1 8.7 66 3.2 SSW 19 32 10 17 1006.9 - 1.2
24/03:00pm 15.4 11.7 9.4 67 3.1 WSW 19 30 10 16 1006.5 1006.6 1.2
24/02:30pm 15.8 12.1 9.5 66 3.3 SW 19 28 10 15 1006.4 - 1.2
24/02:00pm 15.1 12.0 10.2 72 2.6 SW 17 28 9 15 1006.4 - 1.2
24/01:30pm 14.4 11.9 11.2 81 1.7 WSW 15 22 8 12 1006.4 - 1.2
24/01:00pm 13.9 12.0 11.7 86 1.2 WSW 13 20 7 11 1006.5 - 1.2
24/12:30pm 13.8 12.1 12.3 91 0.8 SW 13 28 7 15 1006.5 - 1.2
24/12:00pm 16.2 14.5 12.6 79 2.0 NW 13 20 7 11 1006.2 1006.3 0.8
24/11:30am 15.5 13.5 12.8 84 1.5 NNW 15 30 8 16 1006.4 - 0.8
24/11:00am 14.3 12.2 12.5 89 1.0 NNW 15 26 8 14 1006.5 - 0.8
24/10:30am 13.4 12.0 12.3 93 0.6 NNW 11 20 6 11 1006.8 - 0.8
24/10:00am 12.9 11.4 12.0 94 0.5 N 11 19 6 10 1006.8 - 0.8
24/09:30am 12.8 11.2 11.7 93 0.6 N 11 17 6 9 1006.9 - 0.8
24/09:00am 12.7 11.4 11.4 92 0.7 NNE 9 17 5 9 1006.8 1006.9 2.4
24/08:30am 12.5 11.1 11.0 90 0.8 NNE 9 19 5 10 1006.8 - 1.8
24/08:00am 12.9 10.2 10.4 85 1.3 NNE 15 22 8 12 1006.7 - 1.2
24/07:30am 13.2 12.4 11.1 87 1.1 ENE 6 13 3 7 1006.4 - 0.8
24/07:00am 13.7 11.9 10.9 83 1.5 NNE 11 19 6 10 1006.4 - 0.2
24/06:30am 14.0 12.0 10.0 77 2.1 NNE 11 20 6 11 1006.1 - 0.2
24/06:00am 14.4 11.1 8.2 66 3.1 NNE 15 30 8 16 1005.7 1005.8 0.0
24/05:30am 15.2 12.0 6.9 57 4.1 N 13 20 7 11 1005.5 - 0.0
24/05:00am 15.6 11.9 6.4 54 4.5 N 15 28 8 15 1004.5 - 0.0
24/04:30am 16.9 12.3 3.6 41 6.2 N 17 33 9 18 1004.4 - 0.0
24/04:00am 16.6 13.4 5.1 46 5.5 N 11 20 6 11 1004.6 - 0.0
24/03:30am 16.8 13.8 4.0 42 6.0 NNE 9 20 5 11 1004.8 - 0.0
24/03:00am 16.6 13.3 4.3 44 5.8 NNE 11 17 6 9 1005.4 1005.5 0.0
24/02:30am 16.3 13.7 4.4 45 5.6 NE 7 15 4 8 1005.6 - 0.0
24/02:00am 16.2 13.3 4.6 46 5.5 ENE 9 17 5 9 1005.5 - 0.0
24/01:30am 15.8 13.4 5.1 49 5.1 NE 7 13 4 7 1006.3 - 0.0
24/01:00am 15.8 13.4 5.1 49 5.1 NE 7 13 4 7 1006.2 - 0.0
24/12:30am 15.8 13.4 5.4 50 5.0 NE 7 19 4 10 1006.3 - 0.0
24/12:00am 15.8 13.5 5.6 50 4.9 NE 7 11 4 6 1006.5 1006.6 0.0
 
Date/Time
CST
Temp
°C
App
Temp
°C
Dew
Point
°C
Rel
Hum
%
Delta-T
°C
Wind Press
QNH
hPa
Press
MSL
hPa
Rain since
9am
mm
Dir  Spd
km/h
Gust
km/h
Spd
kts
Gust
kts
23/11:30pm 15.7 13.5 6.3 53 4.6 NNE 7 13 4 7 1006.6 - 0.0
23/11:00pm 16.0 13.9 6.7 54 4.6 NE 7 13 4 7 1006.8 - 0.0
23/10:30pm 16.0 13.9 6.7 54 4.6 NE 7 15 4 8 1007.3 - 0.0
23/10:00pm 14.0 13.2 8.0 67 3.0 NE 2 9 1 5 1007.5 - 0.0
23/09:30pm 13.9 13.5 8.3 69 2.8 CALM 0 0 0 0 1007.6 - 0.0
23/09:00pm 14.2 13.4 8.2 67 3.0 ENE 2 6 1 3 1007.7 1007.8 0.0
23/08:30pm 14.5 12.9 8.8 68 2.9 ENE 7 9 4 5 1007.7 - 0.0
23/08:00pm 15.1 13.6 9.1 67 3.1 ENE 7 9 4 5 1007.8 - 0.0
23/07:30pm 15.8 14.9 9.2 65 3.4 ENE 4 6 2 3 1007.8 - 0.0
23/07:00pm 16.5 16.0 9.2 62 3.8 N 2 7 1 4 1007.6 - 0.0
23/06:30pm 17.7 16.1 8.2 53 4.9 N 6 9 3 5 1007.3 - 0.0
23/06:00pm 18.6 15.8 7.1 47 5.8 N 11 19 6 10 1007.3 1007.4 0.0
23/05:30pm 19.0 16.2 6.9 45 6.1 N 11 19 6 10 1007.5 - 0.0
23/05:00pm 19.5 16.6 6.6 43 6.5 N 11 17 6 9 1007.5 - 0.0
23/04:30pm 20.0 16.6 6.0 40 7.0 NNW 13 22 7 12 1007.9 - 0.0
23/04:00pm 20.4 16.6 6.0 39 7.2 N 15 24 8 13 1007.9 - 0.0
23/03:30pm 20.2 15.7 6.0 39 7.1 N 19 30 10 16 1008.0 - 0.0
23/03:00pm 20.6 17.6 7.7 43 6.7 N 13 28 7 15 1008.3 1008.4 0.0
23/02:30pm 20.0 16.1 5.4 38 7.2 N 15 28 8 15 1008.6 - 0.0
23/02:00pm 19.9 15.2 5.3 38 7.2 N 19 35 10 19 1009.0 - 0.0
23/01:30pm 19.6 15.4 5.9 40 6.8 N 17 30 9 16 1009.4 - 0.0
23/01:00pm 19.0 14.6 5.0 39 6.8 NNE 17 32 9 17 1010.2 - 0.0
23/12:30pm 19.2 15.2 4.7 38 7.0 N 15 32 8 17 1010.9 - 0.0
23/12:00pm 17.8 13.5 5.2 43 6.1 NNE 17 30 9 16 1011.4 1011.5 0.0
23/11:30am 17.5 13.7 5.6 45 5.8 NNE 15 26 8 14 1011.9 - 0.0
23/11:00am 17.0 12.7 5.1 45 5.7 N 17 32 9 17 1012.7 - 0.0
23/10:30am 16.6 12.2 4.5 44 5.7 N 17 30 9 16 1013.1 - 0.0
23/10:00am 16.1 11.7 4.7 46 5.4 NNE 17 30 9 16 1013.4 - 0.0
23/09:30am 15.5 11.0 4.1 46 5.3 NNE 17 30 9 16 1013.8 - 0.0
23/09:00am 15.1 10.9 3.8 46 5.2 NE 15 32 8 17 1013.9 1013.9 0.0
23/08:30am 14.2 10.9 4.5 52 4.5 NE 11 20 6 11 1014.4 - 0.0
23/08:00am 12.6 9.1 3.7 54 4.0 NE 11 20 6 11 1014.9 - 0.0
23/07:30am 12.0 8.5 3.7 57 3.7 NE 11 20 6 11 1015.2 - 0.0
23/07:00am 10.9 8.2 3.9 62 3.1 ENE 7 15 4 8 1015.3 - 0.0
23/06:30am 9.4 6.9 3.9 68 2.4 NE 6 11 3 6 1015.4 - 0.0
23/06:00am 9.0 6.4 4.0 71 2.2 ENE 7 13 4 7 1015.3 1015.4 0.0
23/05:30am 6.6 4.6 4.3 85 1.0 ENE 4 9 2 5 1015.6 - 0.0
23/05:00am 5.7 4.4 4.3 91 0.6 CALM 0 0 0 0 1016.0 - 0.0
23/04:30am 6.0 4.8 4.4 89 0.7 CALM 0 0 0 0 1016.1 - 0.0
23/04:00am 6.0 4.8 4.4 89 0.7 CALM 0 0 0 0 1016.5 - 0.0
23/03:30am 6.2 5.0 4.6 89 0.7 CALM 0 0 0 0 1016.1 - 0.0
23/03:00am 6.8 5.6 4.7 86 0.9 CALM 0 0 0 0 1015.9 1016.0 0.0
23/02:30am 7.1 5.9 4.8 85 1.0 CALM 0 0 0 0 1016.3 - 0.0
23/02:00am 7.5 6.4 5.0 84 1.1 CALM 0 0 0 0 1016.7 - 0.0
23/01:30am 8.1 7.0 4.9 80 1.4 CALM 0 0 0 0 1017.1 - 0.0
23/01:00am 8.7 7.6 5.1 78 1.6 CALM 0 0 0 0 1017.3 - 0.0
23/12:30am 9.6 8.0 4.7 71 2.2 ENE 2 9 1 5 1017.3 - 0.0
23/12:00am 10.0 7.5 4.9 70 2.3 E 7 11 4 6 1017.8 1017.9 0.0
 
Date/Time
CST
Temp
°C
App
Temp
°C
Dew
Point
°C
Rel
Hum
%
Delta-T
°C
Wind Press
QNH
hPa
Press
MSL
hPa
Rain since
9am
mm
Dir  Spd
km/h
Gust
km/h
Spd
kts
Gust
kts
22/11:30pm 10.3 7.8 5.0 69 2.4 E 7 13 4 7 1018.2 - 0.0
22/11:00pm 10.8 7.9 4.8 66 2.7 E 9 19 5 10 1018.6 - 0.0
22/10:30pm 11.5 8.6 4.9 64 3.0 E 9 15 5 8 1018.9 - 0.0
22/10:00pm 11.7 9.5 5.2 64 3.0 E 6 11 3 6 1019.2 - 0.0
22/09:30pm 11.8 10.1 5.8 66 2.8 E 4 11 2 6 1019.5 - 0.0
22/09:00pm 11.7 10.9 6.4 70 2.5 CALM 0 6 0 3 1019.8 1019.9 0.0
22/08:30pm 11.8 10.6 6.5 70 2.5 SSW 2 9 1 5 1020.0 - 0.0
22/08:00pm 11.9 9.6 5.9 66 2.8 S 7 13 4 7 1020.0 - 0.0
22/07:30pm 11.9 9.6 5.7 66 2.9 SW 7 13 4 7 1020.0 - 0.0
22/07:00pm 12.0 8.9 5.5 64 3.0 SW 11 13 6 7 1019.9 - 0.0
22/06:30pm 12.0 9.2 5.3 63 3.1 SW 9 13 5 7 1019.8 - 0.0
22/06:00pm 12.2 9.0 5.0 61 3.3 WSW 11 17 6 9 1019.7 1019.8 0.0
22/05:30pm 12.7 9.6 5.4 61 3.4 WSW 11 17 6 9 1019.7 - 0.0
22/05:00pm 12.9 9.3 5.1 59 3.6 WSW 13 19 7 10 1019.5 - 0.0
22/04:30pm 13.5 9.8 4.3 53 4.2 SW 13 19 7 10 1019.5 - 0.0
22/04:00pm 14.3 11.4 4.9 53 4.4 WSW 9 17 5 9 1019.2 - 0.0
22/03:30pm 14.7 12.2 4.9 52 4.6 WSW 7 13 4 7 1019.3 - 0.0
22/03:00pm 15.0 12.1 4.4 49 4.9 WSW 9 17 5 9 1019.5 1019.6 0.0
22/02:30pm 14.5 11.3 5.1 53 4.4 WSW 11 24 6 13 1019.9 - 0.0
22/02:00pm 15.1 11.8 4.6 49 4.9 WSW 11 19 6 10 1020.2 - 0.0
22/01:30pm 14.3 11.0 4.8 53 4.4 WSW 11 17 6 9 1020.4 - 0.0
22/01:00pm 14.3 11.0 4.3 51 4.6 SSW 11 17 6 9 1020.6 - 0.0
22/12:30pm 14.4 11.1 4.4 51 4.6 WSW 11 17 6 9 1020.8 - 0.0
22/12:00pm 13.5 10.4 3.8 52 4.4 S 9 15 5 8 1021.1 1021.2 0.0

Other Formats:

Comma delimited format used in spreadsheet applications
http://www.bom.gov.au/fwo/IDS60801/IDS60801.94675.axf

JavaScript Object Notation format (JSON) in row-major order
http://www.bom.gov.au/fwo/IDS60801/IDS60801.94675.json